createdAt,value
2018-02-14T00:02:00.536Z,12.75
2018-02-14T00:04:28.666Z,11.05
2018-02-14T00:06:56.849Z,12.00
2018-02-14T00:09:24.930Z,12.13
2018-02-14T00:11:53.079Z,12.20
2018-02-14T00:14:21.218Z,12.30
2018-02-14T00:16:49.359Z,12.00
2018-02-14T00:19:17.544Z,11.68
2018-02-14T00:21:46.411Z,12.30
2018-02-14T00:24:14.608Z,13.18
2018-02-14T00:26:42.720Z,14.18
2018-02-14T00:29:10.847Z,13.90
2018-02-14T00:31:38.975Z,14.93
2018-02-14T00:34:07.140Z,13.20
2018-02-14T00:36:35.273Z,12.85
2018-02-14T00:39:03.414Z,12.57
2018-02-14T00:41:32.328Z,12.35
2018-02-14T00:44:00.454Z,10.60
2018-02-14T00:46:28.593Z,12.45
2018-02-14T00:48:56.746Z,12.25
2018-02-14T00:51:24.879Z,13.07
2018-02-14T00:53:53.809Z,17.83
2018-02-14T00:56:22.804Z,24.02
2018-02-14T00:58:50.927Z,25.00
2018-02-14T01:01:19.057Z,21.30
2018-02-14T01:03:47.207Z,15.02
2018-02-14T01:06:15.327Z,12.37
2018-02-14T01:08:43.453Z,11.80
2018-02-14T01:11:11.635Z,11.05
2018-02-14T01:13:39.746Z,12.33
2018-02-14T01:16:07.886Z,10.93
2018-02-14T01:18:41.688Z,11.00
2018-02-14T01:21:09.822Z,12.73
2018-02-14T01:23:38.749Z,11.90
2018-02-14T01:26:06.856Z,13.95
2018-02-14T01:28:35.097Z,12.47
2018-02-14T01:31:03.266Z,12.77
2018-02-14T01:33:32.155Z,12.45
2018-02-14T01:36:00.286Z,12.93
2018-02-14T01:38:28.422Z,12.60
2018-02-14T01:40:56.563Z,11.70
2018-02-14T01:43:24.747Z,13.50
2018-02-14T01:45:52.859Z,13.07
2018-02-14T01:48:20.991Z,13.70
2018-02-14T01:50:49.138Z,12.90
2018-02-14T01:53:17.337Z,13.80
2018-02-14T01:55:46.218Z,13.93
2018-02-14T01:58:14.351Z,12.93
2018-02-14T02:00:42.498Z,12.88
2018-02-14T02:03:10.620Z,13.77
2018-02-14T02:05:38.788Z,14.10
2018-02-14T02:08:06.899Z,14.45
2018-02-14T02:10:35.060Z,13.40
2018-02-14T02:13:03.183Z,13.77
2018-02-14T02:15:31.306Z,14.90
2018-02-14T02:17:59.441Z,16.05
2018-02-14T02:20:28.339Z,14.20
2018-02-14T02:22:56.487Z,15.85
2018-02-14T02:25:24.628Z,14.07
2018-02-14T02:27:52.801Z,14.40
2018-02-14T02:30:20.975Z,13.50
2018-02-14T02:32:49.129Z,13.82
2018-02-14T02:35:17.246Z,14.18
2018-02-14T02:37:45.379Z,16.02
2018-02-14T02:40:25.427Z,15.32
2018-02-14T02:42:53.539Z,14.87
2018-02-14T02:45:23.181Z,15.45
2018-02-14T02:47:52.096Z,15.13
2018-02-14T02:50:20.243Z,21.02
2018-02-14T02:52:48.366Z,19.05
2018-02-14T02:55:16.502Z,18.10
2018-02-14T02:57:44.644Z,18.60
2018-02-14T03:00:13.559Z,17.35
2018-02-14T03:02:41.689Z,15.25
2018-02-14T03:05:09.812Z,14.68
2018-02-14T03:07:38.068Z,14.18
2018-02-14T03:10:06.969Z,15.00
2018-02-14T03:12:35.855Z,13.70
2018-02-14T03:15:04.763Z,13.52
2018-02-14T03:17:32.876Z,14.13
2018-02-14T03:20:01.023Z,13.32
2018-02-14T03:22:29.144Z,12.35
2018-02-14T03:24:58.067Z,13.20
2018-02-14T03:27:26.942Z,13.23
2018-02-14T03:29:55.090Z,13.52
2018-02-14T03:32:23.302Z,12.85
2018-02-14T03:34:52.182Z,13.13
2018-02-14T03:37:20.367Z,12.60
2018-02-14T03:39:48.463Z,12.23
2018-02-14T03:42:16.608Z,12.65
2018-02-14T03:44:44.744Z,12.25
2018-02-14T03:47:13.641Z,14.18
2018-02-14T03:49:42.531Z,12.10
2018-02-14T03:52:11.459Z,13.45
2018-02-14T03:54:39.574Z,12.55
2018-02-14T03:57:07.719Z,12.50
2018-02-14T03:59:35.858Z,12.70
2018-02-14T04:02:04.045Z,13.10
2018-02-14T04:04:32.162Z,12.20
2018-02-14T04:07:00.312Z,12.27
2018-02-14T04:09:28.460Z,12.60
2018-02-14T04:11:56.570Z,12.13
2018-02-14T04:14:24.741Z,12.37
2018-02-14T04:16:52.876Z,11.90
2018-02-14T04:19:21.051Z,11.45
2018-02-14T04:21:49.940Z,11.57
2018-02-14T04:24:18.142Z,11.48
2018-02-14T04:26:46.284Z,12.02
2018-02-14T04:29:14.460Z,12.40
2018-02-14T04:31:42.594Z,12.40
2018-02-14T04:34:10.726Z,12.25
2018-02-14T04:36:38.894Z,12.00
2018-02-14T04:39:07.154Z,11.48
2018-02-14T04:41:35.261Z,11.52
2018-02-14T04:44:03.404Z,12.20
2018-02-14T04:46:31.531Z,11.55
2018-02-14T04:48:59.684Z,12.93
2018-02-14T04:51:27.801Z,11.60
2018-02-14T04:53:55.954Z,11.30
2018-02-14T04:56:24.088Z,11.07
2018-02-14T04:58:52.218Z,12.70
2018-02-14T05:01:20.362Z,12.47
2018-02-14T05:03:48.485Z,13.20
2018-02-14T05:06:16.956Z,11.20
2018-02-14T05:08:45.077Z,11.98
2018-02-14T05:11:13.229Z,11.32
2018-02-14T05:13:41.355Z,13.43
2018-02-14T05:16:09.475Z,12.02
2018-02-14T05:18:37.618Z,12.25
2018-02-14T05:21:05.770Z,13.43
2018-02-14T05:23:33.900Z,12.02
2018-02-14T05:26:02.068Z,11.50
2018-02-14T05:28:30.212Z,11.73
2018-02-14T05:30:58.385Z,11.90
2018-02-14T05:33:26.489Z,12.80
2018-02-14T05:35:54.728Z,11.38
2018-02-14T05:38:23.757Z,11.75
2018-02-14T05:40:51.906Z,11.88
2018-02-14T05:43:20.071Z,12.70
2018-02-14T05:45:48.231Z,13.50
2018-02-14T05:48:16.350Z,12.05
2018-02-14T05:50:45.246Z,12.30
2018-02-14T05:53:14.208Z,12.90
2018-02-14T05:55:42.301Z,12.70
2018-02-14T05:58:10.754Z,12.30
2018-02-14T06:00:38.913Z,13.37
2018-02-14T06:03:07.822Z,12.07
2018-02-14T06:05:35.955Z,10.73
2018-02-14T06:08:04.863Z,12.15
2018-02-14T06:10:33.022Z,10.60
2018-02-14T06:13:01.922Z,11.70
2018-02-14T06:15:30.050Z,11.18
2018-02-14T06:17:58.188Z,11.32
2018-02-14T06:20:26.859Z,10.90
2018-02-14T06:22:55.006Z,12.00
2018-02-14T06:25:24.023Z,11.38
2018-02-14T06:27:52.936Z,9.83
2018-02-14T06:30:21.084Z,9.95
2018-02-14T06:32:49.977Z,8.82
2018-02-14T06:35:18.181Z,9.23
2018-02-14T06:37:46.349Z,10.95
2018-02-14T06:40:14.490Z,8.98
2018-02-14T06:42:42.628Z,9.43
2018-02-14T06:45:10.750Z,10.35
2018-02-14T06:47:38.883Z,9.95
2018-02-14T06:50:07.029Z,8.30
2018-02-14T06:52:35.148Z,9.45
2018-02-14T06:55:03.607Z,9.00
2018-02-14T06:57:32.539Z,9.70
2018-02-14T07:00:01.542Z,9.00
2018-02-14T07:02:30.422Z,10.30
2018-02-14T07:04:59.314Z,9.23
2018-02-14T07:07:27.457Z,9.50
2018-02-14T07:09:55.606Z,8.60
2018-02-14T07:12:24.534Z,10.40
2018-02-14T07:14:52.660Z,9.55
2018-02-14T07:17:20.790Z,9.50
2018-02-14T07:19:49.688Z,10.55
2018-02-14T07:22:18.606Z,11.88
2018-02-14T07:24:46.741Z,10.88
2018-02-14T07:27:15.769Z,9.60
2018-02-14T07:29:43.940Z,10.77
2018-02-14T07:32:12.830Z,10.65
2018-02-14T07:34:40.960Z,11.50
2018-02-14T07:37:09.894Z,11.25
2018-02-14T07:39:38.816Z,11.75
2018-02-14T07:42:06.959Z,11.77
2018-02-14T07:44:35.091Z,13.75
2018-02-14T07:47:03.990Z,10.60
2018-02-14T07:49:32.296Z,10.80
2018-02-14T07:52:01.294Z,10.80
2018-02-14T07:54:29.417Z,10.48
2018-02-14T07:56:57.633Z,11.45
2018-02-14T07:59:26.503Z,12.17
2018-02-14T08:01:54.665Z,10.10
2018-02-14T08:04:23.558Z,11.00
2018-02-14T08:06:52.485Z,11.30
2018-02-14T08:09:20.752Z,10.18
2018-02-14T08:11:49.645Z,9.80
2018-02-14T08:14:18.028Z,10.10
2018-02-14T08:16:46.137Z,9.52
2018-02-14T08:19:14.299Z,9.55
2018-02-14T08:21:42.444Z,10.23
2018-02-14T08:24:10.590Z,8.60
2018-02-14T08:26:38.737Z,11.12
2018-02-14T08:29:06.975Z,10.70
2018-02-14T08:31:35.126Z,10.90
2018-02-14T08:34:03.237Z,10.35
2018-02-14T08:36:31.380Z,11.68
2018-02-14T08:38:59.546Z,12.88
2018-02-14T08:41:27.647Z,12.10
2018-02-14T08:43:56.536Z,10.63
2018-02-14T08:46:24.654Z,11.40
2018-02-14T08:48:52.795Z,11.93
2018-02-14T08:51:20.957Z,12.50
2018-02-14T08:53:49.087Z,14.27
2018-02-14T08:56:17.204Z,13.25
2018-02-14T08:58:45.385Z,11.20
2018-02-14T09:01:13.556Z,15.25
2018-02-14T09:03:41.689Z,11.35
2018-02-14T09:06:09.815Z,13.23
2018-02-14T09:08:38.035Z,11.25
2018-02-14T09:11:06.317Z,14.75
2018-02-14T09:16:02.683Z,12.60
2018-02-14T09:18:30.844Z,12.65
2018-02-14T09:20:58.979Z,13.20
2018-02-14T09:23:27.124Z,11.07
2018-02-14T09:25:55.255Z,13.87
2018-02-14T09:28:23.404Z,12.60
2018-02-14T09:30:51.592Z,14.23
2018-02-14T09:33:19.705Z,14.32
2018-02-14T09:35:47.851Z,13.48
2018-02-14T09:38:16.004Z,13.65
2018-02-14T09:40:44.155Z,13.43
2018-02-14T09:43:13.065Z,14.02
2018-02-14T09:45:41.241Z,12.80
2018-02-14T09:48:09.390Z,12.85
2018-02-14T09:50:38.336Z,12.10
2018-02-14T09:53:06.477Z,13.38
2018-02-14T09:55:34.652Z,11.80
2018-02-14T09:58:03.568Z,11.77
2018-02-14T10:00:31.713Z,11.43
2018-02-14T10:02:59.845Z,13.85
2018-02-14T10:05:28.747Z,13.00
2018-02-14T10:07:57.665Z,11.95
2018-02-14T10:10:25.847Z,11.95
2018-02-14T10:12:53.958Z,11.93
2018-02-14T10:15:22.094Z,8.60
2018-02-14T10:17:50.221Z,7.75
2018-02-14T10:20:19.144Z,7.53
2018-02-14T10:22:47.274Z,6.35
2018-02-14T10:25:15.493Z,6.30
2018-02-14T10:27:44.403Z,6.77
2018-02-14T10:30:12.532Z,6.50
2018-02-14T10:32:41.433Z,6.30
2018-02-14T10:35:09.585Z,4.80
2018-02-14T10:37:38.511Z,5.30
2018-02-14T10:40:06.614Z,6.00
2018-02-14T10:42:34.771Z,5.63
2018-02-14T10:45:02.903Z,5.45
2018-02-14T10:47:31.790Z,6.32
2018-02-14T10:50:00.713Z,5.72
2018-02-14T10:52:28.818Z,7.70
2018-02-14T10:54:56.931Z,7.20
2018-02-14T10:57:25.043Z,7.20
2018-02-14T10:59:53.295Z,5.97
2018-02-14T11:02:22.189Z,6.37
2018-02-14T11:04:55.964Z,6.15
2018-02-14T11:07:24.890Z,6.47
2018-02-14T11:09:53.039Z,7.87
2018-02-14T11:12:21.912Z,7.70
2018-02-14T11:14:50.833Z,7.90
2018-02-14T11:17:18.944Z,10.00
2018-02-14T11:19:47.063Z,8.15
2018-02-14T11:22:15.189Z,9.20
2018-02-14T11:24:43.425Z,8.50
2018-02-14T11:27:12.136Z,10.30
2018-02-14T11:29:40.279Z,7.82
2018-02-14T11:32:08.416Z,10.20
2018-02-14T11:34:37.341Z,9.95
2018-02-14T11:37:06.231Z,9.48
2018-02-14T11:39:34.338Z,8.30
2018-02-14T11:42:02.577Z,10.43
2018-02-14T11:44:30.758Z,13.10
2018-02-14T11:46:58.884Z,12.15
2018-02-14T11:49:27.805Z,11.15
2018-02-14T11:51:55.909Z,10.68
2018-02-14T11:54:24.040Z,12.70
2018-02-14T11:56:52.176Z,12.27
2018-02-14T11:59:20.349Z,7.80
2018-02-14T12:01:48.494Z,13.60
2018-02-14T12:04:16.773Z,12.43
2018-02-14T12:06:44.890Z,12.77
2018-02-14T12:09:13.921Z,12.18
2018-02-14T12:11:42.099Z,14.20
2018-02-14T12:14:10.268Z,12.77
2018-02-14T12:16:38.408Z,12.75
2018-02-14T12:19:07.429Z,11.70
2018-02-14T12:21:35.562Z,11.63
2018-02-14T12:24:04.478Z,12.33
2018-02-14T12:26:32.637Z,8.70
2018-02-14T12:29:01.656Z,9.90
2018-02-14T12:31:29.805Z,11.20
2018-02-14T12:33:57.954Z,10.07
2018-02-14T12:36:26.173Z,10.85
2018-02-14T12:38:54.357Z,11.00
2018-02-14T12:41:22.480Z,10.30
2018-02-14T12:43:51.362Z,7.33
2018-02-14T12:46:19.560Z,8.00
2018-02-14T12:48:47.703Z,7.67
2018-02-14T12:51:15.870Z,8.30
2018-02-14T12:53:44.884Z,7.23
2018-02-14T12:56:13.799Z,7.63
2018-02-14T12:58:41.936Z,6.80
2018-02-14T13:01:10.952Z,6.70
2018-02-14T13:03:39.887Z,7.67
2018-02-14T13:06:08.016Z,7.75
2018-02-14T13:08:36.937Z,8.00
2018-02-14T13:11:05.058Z,6.60
2018-02-14T13:13:33.186Z,6.50
2018-02-14T13:16:01.345Z,7.53
2018-02-14T13:18:30.228Z,6.55
2018-02-14T13:20:58.410Z,7.55
2018-02-14T13:23:26.540Z,6.57
2018-02-14T13:25:54.686Z,7.18
2018-02-14T13:28:22.822Z,6.15
2018-02-14T13:30:50.933Z,7.18
2018-02-14T13:33:19.171Z,7.00
2018-02-14T13:35:47.345Z,7.97
2018-02-14T13:38:15.517Z,9.40
2018-02-14T13:40:43.628Z,6.70
2018-02-14T13:43:11.809Z,8.83
2018-02-14T13:45:40.035Z,8.80
2018-02-14T13:48:08.648Z,9.98
2018-02-14T13:50:37.567Z,8.40
2018-02-14T13:53:05.707Z,7.90
2018-02-14T13:55:33.852Z,7.37
2018-02-14T13:58:02.253Z,8.10
2018-02-14T14:00:30.409Z,8.23
2018-02-14T14:02:58.544Z,7.15
2018-02-14T14:05:27.460Z,7.32
2018-02-14T14:07:55.578Z,7.87
2018-02-14T14:10:23.738Z,8.30
2018-02-14T14:12:52.623Z,8.30
2018-02-14T14:15:20.882Z,9.27
2018-02-14T14:17:49.065Z,9.52
2018-02-14T14:20:17.177Z,10.13
2018-02-14T14:22:46.216Z,9.40
2018-02-14T14:25:15.102Z,10.45
2018-02-14T14:27:43.266Z,10.93
2018-02-14T14:30:12.138Z,9.77
2018-02-14T14:32:41.062Z,10.15
2018-02-14T14:35:09.234Z,10.20
2018-02-14T14:37:37.358Z,10.45
2018-02-14T14:40:05.579Z,10.55
2018-02-14T14:42:33.693Z,10.10
2018-02-14T14:45:01.858Z,9.43
2018-02-14T14:47:30.060Z,12.57
2018-02-14T14:49:58.208Z,11.63
2018-02-14T14:52:26.388Z,11.05
2018-02-14T14:54:54.561Z,10.13
2018-02-14T14:57:22.696Z,10.75
2018-02-14T14:59:50.829Z,10.02
2018-02-14T15:02:19.982Z,9.57
2018-02-14T15:04:48.151Z,11.80
2018-02-14T15:07:16.300Z,11.05
2018-02-14T15:09:44.455Z,10.80
2018-02-14T15:12:13.366Z,11.70
2018-02-14T15:14:41.530Z,11.70
2018-02-14T15:17:10.414Z,10.80
2018-02-14T15:19:38.586Z,11.18
2018-02-14T15:22:08.524Z,11.38
2018-02-14T15:24:36.654Z,10.45
2018-02-14T15:27:05.685Z,13.57
2018-02-14T15:29:33.818Z,11.93
2018-02-14T15:32:02.771Z,11.80
2018-02-14T15:34:30.914Z,10.75
2018-02-14T15:36:59.029Z,13.88
2018-02-14T15:39:27.214Z,13.52
2018-02-14T15:41:55.374Z,17.10
2018-02-14T15:44:23.500Z,14.77
2018-02-14T15:46:51.641Z,15.40
2018-02-14T15:49:20.546Z,13.00
2018-02-14T15:51:49.432Z,13.90
2018-02-14T15:54:17.627Z,14.68
2018-02-14T15:56:46.366Z,18.00
2018-02-14T15:59:14.692Z,16.70
2018-02-14T16:01:42.818Z,15.55
2018-02-14T16:04:10.967Z,16.00
2018-02-14T16:06:39.127Z,18.98
2018-02-14T16:09:07.258Z,17.90
2018-02-14T16:11:35.410Z,16.80
2018-02-14T16:14:03.554Z,15.27
2018-02-14T16:16:31.715Z,19.60
2018-02-14T16:18:59.943Z,18.70
2018-02-14T16:21:28.065Z,20.10
2018-02-14T16:23:56.318Z,18.40
2018-02-14T16:26:25.225Z,17.50
2018-02-14T16:28:53.451Z,18.27
2018-02-14T16:31:22.353Z,19.33
2018-02-14T16:33:51.240Z,18.77
2018-02-14T16:36:20.152Z,20.10
2018-02-14T16:38:48.298Z,17.33
2018-02-14T16:41:16.451Z,24.23
2018-02-14T16:43:44.675Z,19.57
2018-02-14T16:46:12.835Z,22.58
2018-02-14T16:48:40.993Z,18.25
2018-02-14T16:51:09.109Z,17.85
2018-02-14T16:53:37.334Z,18.95
2018-02-14T16:56:05.539Z,19.87
2018-02-14T16:58:34.476Z,18.73
2018-02-14T17:01:02.622Z,20.70
2018-02-14T17:03:30.880Z,19.00
2018-02-14T17:05:58.979Z,20.15
2018-02-14T17:08:27.151Z,19.80
2018-02-14T17:10:55.370Z,20.23
2018-02-14T17:13:23.457Z,19.50
2018-02-14T17:15:51.644Z,21.25
2018-02-14T17:18:19.766Z,19.55
2018-02-14T17:20:47.996Z,21.12
2018-02-14T17:23:16.167Z,18.15
2018-02-14T17:25:44.339Z,19.35
2018-02-14T17:28:12.487Z,19.83
2018-02-14T17:30:40.634Z,19.25
2018-02-14T17:33:08.867Z,18.65
2018-02-14T17:35:37.026Z,19.20
2018-02-14T17:38:05.172Z,19.67
2018-02-14T17:40:33.379Z,21.35
2018-02-14T17:43:01.483Z,19.92
2018-02-14T17:45:29.714Z,19.45
2018-02-14T17:47:57.891Z,20.15
2018-02-14T17:50:26.000Z,20.67
2018-02-14T17:52:54.237Z,19.12
2018-02-14T17:55:23.153Z,17.02
2018-02-14T17:57:51.276Z,15.70
2018-02-14T18:00:20.165Z,16.50
2018-02-14T18:02:48.326Z,15.23
2018-02-14T18:05:16.452Z,17.17
2018-02-14T18:07:44.612Z,16.75
2018-02-14T18:10:12.728Z,16.08
2018-02-14T18:12:40.953Z,15.97
2018-02-14T18:15:09.070Z,15.70
2018-02-14T18:17:37.232Z,16.27
2018-02-14T18:20:05.471Z,18.65
2018-02-14T18:22:33.589Z,17.35
2018-02-14T18:25:01.730Z,18.08
2018-02-14T18:27:29.910Z,24.27
2018-02-14T18:29:58.062Z,19.23
2018-02-14T18:32:26.205Z,18.17
2018-02-14T18:34:55.153Z,18.40
2018-02-14T18:37:23.294Z,23.45
2018-02-14T18:39:52.160Z,21.45
2018-02-14T18:42:20.313Z,26.12
2018-02-14T18:44:49.206Z,23.95
2018-02-14T18:47:18.115Z,24.05
2018-02-14T18:49:47.036Z,22.95
2018-02-14T18:52:15.212Z,29.00
2018-02-14T18:54:43.363Z,23.20
2018-02-14T18:57:11.536Z,27.70
2018-02-14T18:59:39.691Z,24.20
2018-02-14T19:02:08.715Z,28.15
2018-02-14T19:04:36.851Z,25.92
2018-02-14T19:07:05.886Z,26.10
2018-02-14T19:09:34.060Z,24.55
2018-02-14T19:12:02.215Z,32.25
2018-02-14T19:14:30.360Z,29.05
2018-02-14T19:16:58.495Z,28.42
2018-02-14T19:19:26.744Z,25.60
2018-02-14T19:21:54.880Z,30.65
2018-02-14T19:24:23.773Z,25.50
2018-02-14T19:26:52.738Z,30.40
2018-02-14T19:29:20.874Z,24.85
2018-02-14T19:31:49.045Z,29.77
2018-02-14T19:34:17.215Z,25.52
2018-02-14T19:36:46.100Z,31.30
2018-02-14T19:39:14.303Z,25.42
2018-02-14T19:41:42.447Z,22.65
2018-02-14T19:44:10.740Z,24.10
2018-02-14T19:46:38.901Z,29.50
2018-02-14T19:49:07.046Z,25.12
2018-02-14T19:51:35.233Z,28.98
2018-02-14T19:54:04.163Z,28.65
2018-02-14T19:56:32.360Z,24.40
2018-02-14T19:59:00.539Z,21.47
2018-02-14T20:01:28.688Z,21.67
2018-02-14T20:03:56.929Z,21.12
2018-02-14T20:06:25.876Z,21.30
2018-02-14T20:08:54.082Z,20.65
2018-02-14T20:11:22.282Z,22.05
2018-02-14T20:13:50.422Z,22.50
2018-02-14T20:16:19.320Z,23.90
2018-02-14T20:18:48.333Z,25.08
2018-02-14T20:21:16.474Z,23.83
2018-02-14T20:23:45.407Z,27.27
2018-02-14T20:26:13.521Z,27.48
2018-02-14T20:28:41.738Z,23.20
2018-02-14T20:31:09.949Z,20.60
2018-02-14T20:33:38.114Z,25.02
2018-02-14T20:36:06.274Z,21.60
2018-02-14T20:38:34.459Z,22.25
2018-02-14T20:41:02.610Z,22.48
2018-02-14T20:43:30.779Z,20.30
2018-02-14T20:45:59.688Z,21.62
2018-02-14T20:48:27.932Z,20.58
2018-02-14T20:50:56.080Z,22.42
2018-02-14T20:53:24.284Z,20.80
2018-02-14T20:55:52.465Z,21.48
2018-02-14T20:58:20.638Z,21.13
2018-02-14T21:00:48.779Z,21.02
2018-02-14T21:03:16.989Z,21.02
2018-02-14T21:05:45.255Z,19.08
2018-02-14T21:08:13.378Z,21.05
2018-02-14T21:10:42.335Z,19.17
2018-02-14T21:13:10.490Z,20.43
2018-02-14T21:15:38.656Z,21.77
2018-02-14T21:18:06.821Z,23.23
2018-02-14T21:20:34.984Z,21.85
2018-02-14T21:23:03.133Z,24.05
2018-02-14T21:25:31.360Z,21.27
2018-02-14T21:27:59.548Z,20.80
2018-02-14T21:30:27.842Z,20.15
2018-02-14T21:32:56.004Z,18.45
2018-02-14T21:35:24.166Z,17.70
2018-02-14T21:37:52.348Z,20.75
2018-02-14T21:40:20.527Z,19.65
2018-02-14T21:42:48.914Z,20.13
2018-02-14T21:45:17.142Z,19.05
2018-02-14T21:47:45.323Z,21.45
2018-02-14T21:50:13.510Z,18.77
2018-02-14T21:52:41.786Z,17.95
2018-02-14T21:55:10.159Z,20.08
2018-02-14T21:57:38.284Z,22.90
2018-02-14T22:00:06.520Z,19.33
2018-02-14T22:02:34.685Z,24.08
2018-02-14T22:05:02.850Z,17.70
2018-02-14T22:07:31.190Z,18.67
2018-02-14T22:10:00.284Z,17.42
2018-02-14T22:12:28.491Z,15.53
2018-02-14T22:14:56.671Z,16.15
2018-02-14T22:17:25.631Z,16.80
2018-02-14T22:19:53.777Z,14.70
2018-02-14T22:22:21.916Z,15.85
2018-02-14T22:24:50.774Z,16.10
2018-02-14T22:27:18.929Z,15.57
2018-02-14T22:29:47.110Z,15.95
2018-02-14T22:32:15.233Z,16.10
2018-02-14T22:34:44.174Z,14.50
2018-02-14T22:37:12.307Z,16.17
2018-02-14T22:39:41.451Z,17.00
2018-02-14T22:42:09.575Z,15.48
2018-02-14T22:44:38.506Z,14.20
2018-02-14T22:47:06.656Z,13.85
2018-02-14T22:49:34.814Z,14.43
2018-02-14T22:52:02.997Z,14.35
2018-02-14T22:54:31.152Z,13.45
2018-02-14T22:57:00.171Z,13.50
2018-02-14T22:59:28.294Z,12.68
2018-02-14T23:01:56.417Z,15.25
2018-02-14T23:04:24.556Z,15.57
2018-02-14T23:06:53.479Z,13.48
2018-02-14T23:09:21.622Z,13.93
2018-02-14T23:11:50.541Z,14.90
2018-02-14T23:14:18.723Z,14.23
2018-02-14T23:16:46.885Z,14.35
2018-02-14T23:19:15.060Z,13.65
2018-02-14T23:21:43.184Z,13.80
2018-02-14T23:24:11.349Z,13.55
2018-02-14T23:26:39.493Z,14.25
2018-02-14T23:29:07.626Z,14.17
2018-02-14T23:31:35.778Z,13.82
2018-02-14T23:34:04.919Z,12.98
2018-02-14T23:36:33.792Z,14.00
2018-02-14T23:39:01.996Z,14.02
2018-02-14T23:41:30.256Z,12.80
2018-02-14T23:43:59.164Z,12.83
2018-02-14T23:46:27.323Z,12.32
2018-02-14T23:48:55.491Z,12.40
2018-02-14T23:51:23.612Z,13.73
2018-02-14T23:53:51.746Z,13.50
2018-02-14T23:56:19.892Z,12.20
2018-02-14T23:58:48.068Z,13.00
